Time;durP1;ratioP1;P1;durP2;ratioP2;P2;SDS_P1;SDS_P2;PMS_P1;PMS_P2;Temp;Humidity;BMP_temperature;BMP_pressure;BME280_temperature;BME280_humidity;BME280_pressure;Samples;Min_cycle;Max_cycle;Signal;HPM_P1;HPM_P2
2023/02/23 00:01:15;;;;;;;11.38;7.80;;;8.50;69.40;;;;;;5058123;28;20752;-71
2023/02/23 00:03:43;;;;;;;13.90;9.23;;;8.50;69.40;;;;;;5071850;28;20197;-71
2023/02/23 00:06:12;;;;;;;12.40;8.38;;;8.50;69.60;;;;;;5059226;28;20247;-72
2023/02/23 00:08:40;;;;;;;12.93;9.00;;;8.50;69.20;;;;;;5071046;28;20259;-70
2023/02/23 00:11:10;;;;;;;13.52;9.27;;;8.50;69.80;;;;;;5060149;28;20596;-71
2023/02/23 00:13:38;;;;;;;15.25;8.80;;;8.50;70.20;;;;;;5051803;28;20190;-71
2023/02/23 00:16:06;;;;;;;16.42;10.38;;;8.60;69.80;;;;;;5061668;28;20186;-71
2023/02/23 00:18:43;;;;;;;16.40;9.85;;;8.60;69.90;;;;;;5052661;28;20191;-71
2023/02/23 00:21:17;;;;;;;14.25;9.18;;;8.60;70.70;;;;;;5061793;28;20186;-77
2023/02/23 00:23:49;;;;;;;14.93;10.52;;;8.60;71.70;;;;;;5071724;28;20284;-71
2023/02/23 00:26:19;;;;;;;16.27;10.02;;;8.60;70.70;;;;;;5064492;28;20186;-71
2023/02/23 00:28:47;;;;;;;16.67;10.18;;;8.70;70.80;;;;;;5035723;28;20298;-71
2023/02/23 00:31:15;;;;;;;19.95;10.85;;;8.70;70.50;;;;;;5055706;28;20255;-71
2023/02/23 00:33:42;;;;;;;15.68;11.00;;;8.70;70.30;;;;;;5075275;28;20688;-71
2023/02/23 00:36:12;;;;;;;17.23;10.25;;;8.70;70.60;;;;;;5066437;28;20256;-71
2023/02/23 00:38:41;;;;;;;15.05;11.55;;;8.70;71.50;;;;;;5073869;28;20219;-71
2023/02/23 00:41:11;;;;;;;14.73;10.30;;;8.70;70.70;;;;;;5066944;28;20252;-71
2023/02/23 00:43:46;;;;;;;13.00;9.48;;;8.70;70.50;;;;;;5055565;28;20613;-71
2023/02/23 00:46:16;;;;;;;15.60;10.38;;;8.70;70.80;;;;;;5062900;28;20560;-73
2023/02/23 00:48:43;;;;;;;15.25;9.82;;;8.60;71.20;;;;;;5055843;28;20213;-71
2023/02/23 00:51:12;;;;;;;14.75;9.77;;;8.60;71.20;;;;;;5062017;28;20227;-70
2023/02/23 00:53:40;;;;;;;19.23;11.13;;;8.60;71.70;;;;;;5075235;28;20246;-71
2023/02/23 00:56:09;;;;;;;14.38;8.85;;;8.60;72.00;;;;;;5068301;28;20187;-71
2023/02/23 00:58:36;;;;;;;14.55;9.70;;;8.60;72.20;;;;;;5071166;28;20197;-71
2023/02/23 01:01:06;;;;;;;20.40;11.52;;;8.70;72.50;;;;;;5069308;28;20219;-72
2023/02/23 01:03:33;;;;;;;15.55;9.93;;;8.70;72.10;;;;;;5054930;28;20636;-72
2023/02/23 01:06:04;;;;;;;14.13;9.27;;;8.70;73.40;;;;;;5058458;28;20688;-71
2023/02/23 01:08:31;;;;;;;16.67;10.18;;;8.70;72.60;;;;;;5057353;28;20187;-72
2023/02/23 01:11:05;;;;;;;17.70;10.07;;;8.70;72.90;;;;;;5057794;28;20193;-71
2023/02/23 01:13:32;;;;;;;14.68;9.63;;;8.80;73.60;;;;;;5074801;28;20224;-71
2023/02/23 01:15:59;;;;;;;13.35;8.75;;;8.80;74.30;;;;;;5073112;28;20554;-71
2023/02/23 01:18:27;;;;;;;16.58;10.70;;;8.80;73.20;;;;;;5074876;28;20186;-71
2023/02/23 01:20:55;;;;;;;15.80;9.80;;;8.90;73.20;;;;;;5072480;28;20190;-71
2023/02/23 01:23:22;;;;;;;15.00;10.15;;;8.90;73.60;;;;;;5054771;28;20194;-70
2023/02/23 01:25:49;;;;;;;15.25;10.18;;;8.90;74.70;;;;;;5054692;28;20268;-72
2023/02/23 01:28:18;;;;;;;16.55;10.85;;;9.00;74.40;;;;;;5074656;28;20193;-71
2023/02/23 01:30:45;;;;;;;14.15;9.63;;;9.00;74.00;;;;;;5074673;28;20243;-71
2023/02/23 01:33:12;;;;;;;10.82;8.65;;;9.10;73.90;;;;;;5054630;28;20259;-71
2023/02/23 01:35:40;;;;;;;18.67;8.80;;;9.10;73.70;;;;;;5054114;28;20290;-71
2023/02/23 01:38:07;;;;;;;16.00;10.15;;;9.10;73.50;;;;;;5073159;28;20189;-71
2023/02/23 01:40:37;;;;;;;18.10;11.05;;;9.20;73.40;;;;;;5074206;28;20196;-71
2023/02/23 01:43:12;;;;;;;16.65;9.25;;;9.20;73.30;;;;;;5072228;28;20186;-72
2023/02/23 01:45:42;;;;;;;11.95;8.50;;;9.10;73.20;;;;;;5074168;28;20228;-71
2023/02/23 01:48:13;;;;;;;18.80;10.20;;;9.10;74.10;;;;;;5054330;28;20232;-72
2023/02/23 01:50:48;;;;;;;13.43;9.35;;;9.10;73.20;;;;;;5053990;28;20226;-71
2023/02/23 01:53:17;;;;;;;14.95;9.75;;;9.10;73.60;;;;;;5073353;28;20190;-71
2023/02/23 01:55:45;;;;;;;18.05;10.10;;;9.10;73.60;;;;;;5065800;28;20191;-71
2023/02/23 01:58:16;;;;;;;16.02;11.35;;;9.00;73.60;;;;;;5073068;28;20220;-72
2023/02/23 02:00:50;;;;;;;13.60;9.57;;;9.00;74.10;;;;;;5066221;28;20190;-71
2023/02/23 02:03:26;;;;;;;13.20;9.65;;;8.90;74.40;;;;;;5053816;28;20201;-71
2023/02/23 02:05:55;;;;;;;14.05;9.77;;;8.90;74.50;;;;;;5061671;28;20267;-71
2023/02/23 02:08:23;;;;;;;12.30;10.45;;;8.90;74.90;;;;;;5069901;28;20261;-71
2023/02/23 02:10:54;;;;;;;14.85;10.50;;;8.90;75.20;;;;;;5053717;28;20277;-73
2023/02/23 02:13:25;;;;;;;16.60;10.05;;;8.80;74.90;;;;;;5055205;28;20243;-71
2023/02/23 02:16:11;;;;;;;21.90;11.57;;;8.80;75.00;;;;;;5055724;28;20710;-71
2023/02/23 02:18:54;;;;;;;22.83;12.65;;;8.80;75.50;;;;;;5068067;28;20258;-78
2023/02/23 02:21:38;;;;;;;18.52;11.23;;;8.80;75.00;;;;;;5058114;28;20217;-71
2023/02/23 02:24:37;;;;;;;20.35;10.90;;;8.80;74.70;;;;;;5073641;28;20190;-71
2023/02/23 02:27:19;;;;;;;16.95;10.85;;;8.70;74.90;;;;;;5062510;28;20277;-71
2023/02/23 02:30:13;;;;;;;14.45;10.07;;;8.70;75.10;;;;;;5067563;28;20189;-71
2023/02/23 02:33:10;;;;;;;20.30;10.45;;;8.70;75.20;;;;;;5053185;28;20183;-71
2023/02/23 02:36:17;;;;;;;12.98;9.60;;;8.70;75.50;;;;;;5058392;28;20189;-71
2023/02/23 02:38:55;;;;;;;16.45;9.30;;;8.60;75.80;;;;;;5050119;28;20208;-72
2023/02/23 02:41:34;;;;;;;19.02;9.43;;;8.60;75.50;;;;;;5061361;28;20190;-71
2023/02/23 02:44:09;;;;;;;14.90;10.20;;;8.60;75.50;;;;;;5053435;28;20190;-72
2023/02/23 02:46:40;;;;;;;12.90;9.25;;;8.60;75.60;;;;;;5065286;28;20221;-70
2023/02/23 02:49:16;;;;;;;20.63;9.45;;;8.60;75.80;;;;;;5072273;28;20235;-71
2023/02/23 02:51:48;;;;;;;13.07;9.90;;;8.60;75.90;;;;;;5058343;28;20277;-70
2023/02/23 02:54:25;;;;;;;14.38;9.93;;;8.60;76.00;;;;;;5053008;28;20194;-71
2023/02/23 02:56:56;;;;;;;13.18;9.85;;;8.70;76.30;;;;;;5067576;28;20273;-71
2023/02/23 04:18:23;;;;;;;14.48;8.45;;;8.00;78.40;;;;;;5058102;28;20187;-71
2023/02/23 04:20:50;;;;;;;13.45;8.35;;;7.90;78.40;;;;;;5064464;28;20182;-71
2023/02/23 04:23:18;;;;;;;14.15;8.77;;;7.80;78.90;;;;;;5071982;28;20212;-71
2023/02/23 04:25:46;;;;;;;12.82;7.30;;;7.80;79.60;;;;;;5059097;28;20214;-71
2023/02/23 04:28:14;;;;;;;13.55;9.27;;;7.80;79.80;;;;;;5051619;28;20657;-71
2023/02/23 04:30:41;;;;;;;11.50;8.95;;;7.80;79.80;;;;;;5063369;28;20196;-71
2023/02/23 04:33:09;;;;;;;15.95;9.15;;;7.80;80.20;;;;;;5071635;28;20201;-71
2023/02/23 04:35:37;;;;;;;15.52;8.93;;;7.80;80.20;;;;;;5060617;28;20253;-71
2023/02/23 04:38:05;;;;;;;10.60;8.23;;;7.80;80.00;;;;;;5051485;28;20247;-71
2023/02/23 04:40:32;;;;;;;11.73;8.20;;;7.70;79.40;;;;;;5061447;28;20182;-71
2023/02/23 04:43:01;;;;;;;11.88;8.68;;;7.70;79.30;;;;;;5071127;28;20197;-71
2023/02/23 04:45:28;;;;;;;17.55;8.80;;;7.60;79.50;;;;;;5062216;28;20307;-71
2023/02/23 04:47:55;;;;;;;11.85;7.72;;;7.60;79.70;;;;;;5051305;28;20191;-72
2023/02/23 04:50:22;;;;;;;14.68;8.13;;;7.60;80.30;;;;;;5059968;28;20552;-71
2023/02/23 04:52:52;;;;;;;10.70;6.95;;;7.50;80.60;;;;;;5071491;28;20225;-71
2023/02/23 04:55:20;;;;;;;12.48;7.95;;;7.50;80.90;;;;;;5063703;28;20240;-70
2023/02/23 04:57:47;;;;;;;15.80;8.55;;;7.50;81.20;;;;;;5051415;28;20225;-71
2023/02/23 05:00:16;;;;;;;12.80;7.25;;;7.50;80.60;;;;;;5058264;28;20237;-71
2023/02/23 05:02:44;;;;;;;16.88;7.65;;;7.50;80.40;;;;;;5071516;28;20225;-71
2023/02/23 05:05:11;;;;;;;10.50;6.75;;;7.50;81.40;;;;;;5065077;28;20287;-71
2023/02/23 05:07:39;;;;;;;13.02;8.65;;;7.50;81.00;;;;;;5051367;28;20294;-71
2023/02/23 05:10:08;;;;;;;12.90;7.90;;;7.50;80.70;;;;;;5056874;28;20194;-71
2023/02/23 05:12:36;;;;;;;13.38;9.05;;;7.60;80.70;;;;;;5074716;28;20192;-71
2023/02/23 05:15:03;;;;;;;14.40;8.38;;;7.60;80.50;;;;;;5069911;28;20552;-71
2023/02/23 05:17:31;;;;;;;15.77;7.88;;;7.70;80.20;;;;;;5054958;28;20245;-71
2023/02/23 05:19:58;;;;;;;14.25;8.48;;;7.70;79.50;;;;;;5057893;28;20224;-72
2023/02/23 05:22:25;;;;;;;15.45;8.75;;;7.70;79.10;;;;;;5074988;28;20192;-72
2023/02/23 05:24:52;;;;;;;14.90;9.70;;;7.60;79.00;;;;;;5064565;28;20241;-71
2023/02/23 05:27:20;;;;;;;13.98;8.75;;;7.60;79.20;;;;;;5054734;28;20206;-71
2023/02/23 05:29:48;;;;;;;13.02;7.90;;;7.60;79.10;;;;;;5062982;28;20182;-70
2023/02/23 05:32:15;;;;;;;11.75;8.00;;;7.60;79.00;;;;;;5074753;28;20262;-71
2023/02/23 05:34:42;;;;;;;12.25;7.88;;;7.60;79.10;;;;;;5065873;28;20186;-71
2023/02/23 05:37:09;;;;;;;15.32;8.05;;;7.60;79.20;;;;;;5054439;28;20187;-71
2023/02/23 05:39:36;;;;;;;12.10;7.90;;;7.60;79.30;;;;;;5060712;28;20263;-71
2023/02/23 05:42:03;;;;;;;14.13;7.80;;;7.60;79.30;;;;;;5074440;28;20660;-71
2023/02/23 05:44:32;;;;;;;13.43;8.38;;;7.60;79.50;;;;;;5072715;28;20189;-71
2023/02/23 05:46:59;;;;;;;14.55;7.82;;;7.60;79.50;;;;;;5074292;28;20224;-72
2023/02/23 05:49:26;;;;;;;11.30;7.43;;;7.70;79.70;;;;;;5066457;28;20187;-71
2023/02/23 05:51:54;;;;;;;13.43;7.55;;;7.70;79.30;;;;;;5054066;28;20652;-71
2023/02/23 05:54:21;;;;;;;16.42;7.88;;;7.70;79.00;;;;;;5060542;28;20190;-71
2023/02/23 05:56:48;;;;;;;13.05;7.97;;;7.60;79.00;;;;;;5074379;28;20194;-70
2023/02/23 05:59:16;;;;;;;11.40;6.55;;;7.60;79.40;;;;;;5068660;28;20269;-71
2023/02/23 06:01:44;;;;;;;11.52;7.50;;;7.60;79.40;;;;;;5053707;28;20227;-73
2023/02/23 06:04:13;;;;;;;11.98;7.85;;;7.60;79.80;;;;;;5058034;28;20423;-71
2023/02/23 06:06:40;;;;;;;12.65;8.27;;;7.60;80.80;;;;;;5074032;28;20221;-71
2023/02/23 06:09:08;;;;;;;13.00;7.60;;;7.60;79.90;;;;;;5060165;28;20186;-71
2023/02/23 06:11:35;;;;;;;9.63;7.53;;;7.70;79.80;;;;;;5073798;28;20190;-71
2023/02/23 06:14:02;;;;;;;15.93;7.60;;;7.70;79.80;;;;;;5058769;28;20244;-71
2023/02/23 06:16:30;;;;;;;16.13;7.72;;;7.80;79.70;;;;;;5053716;28;20190;-71
2023/02/23 06:18:59;;;;;;;12.40;8.20;;;7.80;79.70;;;;;;5067344;28;20197;-71
2023/02/23 06:21:26;;;;;;;13.27;8.80;;;7.80;79.70;;;;;;5073607;28;20224;-71
2023/02/23 06:23:53;;;;;;;12.55;7.32;;;7.80;79.70;;;;;;5060491;28;20198;-71
2023/02/23 06:26:20;;;;;;;12.88;8.23;;;7.80;79.60;;;;;;5050680;28;20218;-71
2023/02/23 06:28:47;;;;;;;15.05;9.00;;;7.90;79.70;;;;;;5056096;28;20607;-71
2023/02/23 06:31:15;;;;;;;13.20;7.25;;;7.90;80.60;;;;;;5051805;28;20190;-71
2023/02/23 06:33:42;;;;;;;9.93;6.82;;;8.00;79.80;;;;;;5051720;28;20226;-72
2023/02/23 06:36:10;;;;;;;15.50;8.32;;;8.00;79.90;;;;;;5047725;28;20240;-71
2023/02/23 06:38:38;;;;;;;12.93;8.27;;;8.00;79.60;;;;;;5051919;28;20309;-71
2023/02/23 06:41:09;;;;;;;11.15;6.88;;;8.10;79.60;;;;;;5051737;28;20226;-70
2023/02/23 06:43:36;;;;;;;15.05;6.85;;;8.10;79.90;;;;;;5051788;28;20569;-71
2023/02/23 06:46:05;;;;;;;8.02;6.32;;;8.10;79.70;;;;;;5051479;28;20680;-71
2023/02/23 06:48:32;;;;;;;9.82;6.55;;;8.20;79.60;;;;;;5051558;28;20183;-71
2023/02/23 06:51:00;;;;;;;10.40;7.63;;;8.30;79.20;;;;;;5050945;28;20236;-71
2023/02/23 06:53:29;;;;;;;12.20;8.02;;;8.30;79.10;;;;;;5047141;28;20225;-71
2023/02/23 06:55:56;;;;;;;12.68;7.07;;;8.30;78.90;;;;;;5051293;28;20692;-70
2023/02/23 06:58:23;;;;;;;15.18;7.22;;;8.30;78.80;;;;;;5051459;28;20681;-71
2023/02/23 07:00:50;;;;;;;8.90;5.85;;;8.40;79.00;;;;;;5050297;28;20249;-71
2023/02/23 07:03:19;;;;;;;13.70;7.35;;;8.50;78.90;;;;;;5048940;28;20302;-72
2023/02/23 07:05:46;;;;;;;11.57;7.38;;;8.50;78.60;;;;;;5050363;28;20232;-71
2023/02/23 07:08:13;;;;;;;11.95;6.78;;;8.50;78.40;;;;;;5050741;28;20190;-72
2023/02/23 07:10:41;;;;;;;9.57;6.72;;;8.50;77.90;;;;;;5050883;28;20642;-71
2023/02/23 07:13:09;;;;;;;12.88;7.82;;;8.50;78.00;;;;;;5051613;28;20288;-72
2023/02/23 07:15:36;;;;;;;16.52;7.80;;;8.60;78.20;;;;;;5051916;28;20202;-71
2023/02/23 07:18:03;;;;;;;11.40;8.98;;;8.60;78.20;;;;;;5050775;28;20600;-71
2023/02/23 07:20:34;;;;;;;14.20;10.23;;;8.60;78.30;;;;;;5051032;28;20226;-72
2023/02/23 07:23:01;;;;;;;19.60;9.45;;;8.70;78.10;;;;;;5050954;28;20693;-71
2023/02/23 07:25:29;;;;;;;15.60;9.82;;;8.70;78.00;;;;;;5052157;28;20190;-72
2023/02/23 07:27:58;;;;;;;16.27;9.07;;;8.80;78.10;;;;;;5051157;28;20244;-72
2023/02/23 07:30:25;;;;;;;13.88;8.00;;;8.80;78.40;;;;;;5052013;28;20190;-73
2023/02/23 07:32:53;;;;;;;18.70;8.73;;;8.80;78.40;;;;;;5050787;28;20293;-72
2023/02/23 07:35:21;;;;;;;12.15;8.50;;;8.90;78.10;;;;;;5049878;28;20198;-71
2023/02/23 07:37:48;;;;;;;14.15;8.27;;;8.90;77.90;;;;;;5053098;28;20213;-71
2023/02/23 07:40:15;;;;;;;10.70;7.55;;;9.00;77.90;;;;;;5051705;28;20230;-71
2023/02/23 07:42:43;;;;;;;9.40;6.97;;;9.00;76.90;;;;;;5051193;28;20230;-71
2023/02/23 07:45:12;;;;;;;15.15;7.25;;;9.00;77.20;;;;;;5049125;28;20591;-71
2023/02/23 07:47:39;;;;;;;15.20;7.70;;;9.00;76.80;;;;;;5050952;28;20301;-71
2023/02/23 07:50:09;;;;;;;10.90;6.18;;;9.00;77.10;;;;;;5050599;28;20285;-71
2023/02/23 07:52:37;;;;;;;14.23;7.60;;;9.10;77.70;;;;;;5050819;28;20651;-71
2023/02/23 07:55:04;;;;;;;10.50;7.68;;;9.10;78.10;;;;;;5050448;28;20193;-71
2023/02/23 07:57:31;;;;;;;15.07;6.95;;;9.10;78.10;;;;;;5050760;28;20222;-71
2023/02/23 07:59:59;;;;;;;16.73;8.25;;;9.20;78.00;;;;;;5051258;28;20217;-71
2023/02/23 08:02:28;;;;;;;15.85;8.10;;;9.20;77.20;;;;;;5054364;28;20309;-72
2023/02/23 08:04:55;;;;;;;11.10;7.40;;;9.30;77.00;;;;;;5050501;28;20202;-71
2023/02/23 08:07:23;;;;;;;14.88;8.60;;;9.30;76.20;;;;;;5051116;28;20257;-70
2023/02/23 08:09:50;;;;;;;16.73;10.05;;;9.30;76.20;;;;;;5051807;28;20573;-71
2023/02/23 08:12:17;;;;;;;14.25;8.60;;;9.40;76.20;;;;;;5049849;28;20190;-72
2023/02/23 08:14:44;;;;;;;11.10;7.63;;;9.50;75.50;;;;;;5049839;28;20197;-71
2023/02/23 08:17:11;;;;;;;10.63;7.50;;;9.50;74.90;;;;;;5049912;28;20194;-71
2023/02/23 08:19:40;;;;;;;14.10;7.10;;;9.50;74.80;;;;;;5050524;28;20547;-71
2023/02/23 08:22:07;;;;;;;11.65;8.15;;;9.50;74.20;;;;;;5050175;28;20194;-72
2023/02/23 08:24:34;;;;;;;12.93;7.47;;;9.60;73.90;;;;;;5046433;28;20256;-72
2023/02/23 08:27:02;;;;;;;14.10;8.07;;;9.60;72.80;;;;;;5050251;28;20221;-72
2023/02/23 08:29:29;;;;;;;14.98;7.57;;;9.60;72.70;;;;;;5050578;28;20190;-71
2023/02/23 08:31:56;;;;;;;13.80;7.00;;;9.60;72.30;;;;;;5050076;28;20586;-73
2023/02/23 08:34:24;;;;;;;17.25;7.45;;;9.70;72.40;;;;;;5046403;28;20604;-72
2023/02/23 08:36:53;;;;;;;16.00;8.73;;;9.70;72.70;;;;;;5050752;28;20273;-70
2023/02/23 08:39:20;;;;;;;14.60;7.75;;;9.80;73.00;;;;;;5050546;28;20281;-71
2023/02/23 08:41:47;;;;;;;23.25;10.35;;;9.80;73.60;;;;;;5049943;28;20201;-72
2023/02/23 08:44:14;;;;;;;12.25;8.13;;;9.80;74.50;;;;;;5050304;28;20248;-71
2023/02/23 08:46:44;;;;;;;17.13;11.27;;;9.90;74.70;;;;;;5053232;28;20229;-71
2023/02/23 08:49:11;;;;;;;20.50;11.00;;;9.90;74.00;;;;;;5054147;28;20699;-72
2023/02/23 08:51:40;;;;;;;17.52;10.40;;;9.90;73.50;;;;;;5054073;28;20289;-71
2023/02/23 08:54:13;;;;;;;11.02;8.60;;;9.90;73.30;;;;;;5054038;28;20221;-71
2023/02/23 08:56:40;;;;;;;11.80;7.65;;;9.90;73.60;;;;;;5054021;28;20194;-71
2023/02/23 08:59:07;;;;;;;11.02;8.48;;;10.00;72.30;;;;;;5053741;28;20253;-71
2023/02/23 09:01:35;;;;;;;13.63;8.30;;;10.00;72.30;;;;;;5053742;28;20253;-71
2023/02/23 09:04:03;;;;;;;12.98;9.95;;;10.10;72.40;;;;;;5054330;28;20281;-72
2023/02/23 09:06:30;;;;;;;13.05;8.40;;;10.10;72.80;;;;;;5053359;28;20729;-72
2023/02/23 09:08:56;;;;;;;12.73;9.25;;;10.20;73.00;;;;;;5053592;28;20264;-72
2023/02/23 09:11:25;;;;;;;11.65;7.85;;;10.20;72.90;;;;;;5054035;28;20286;-73
2023/02/23 09:13:52;;;;;;;14.00;8.52;;;10.20;72.60;;;;;;5053862;28;20274;-71
2023/02/23 09:16:19;;;;;;;14.07;7.88;;;10.30;72.20;;;;;;5053466;28;20281;-71
2023/02/23 09:18:46;;;;;;;14.63;8.88;;;10.40;71.60;;;;;;5049332;28;20281;-71
2023/02/23 09:21:17;;;;;;;15.13;9.20;;;10.50;71.30;;;;;;5053576;28;20609;-70
2023/02/23 09:23:46;;;;;;;11.57;8.35;;;10.50;70.70;;;;;;5053619;28;20194;-71
2023/02/23 09:26:15;;;;;;;14.13;7.07;;;10.60;70.50;;;;;;5053334;28;20538;-72
2023/02/23 09:28:43;;;;;;;15.80;8.55;;;10.60;70.30;;;;;;5053609;28;20198;-71
2023/02/23 09:31:12;;;;;;;14.43;9.25;;;10.60;69.90;;;;;;5053488;28;20202;-71
2023/02/23 09:33:39;;;;;;;9.68;7.38;;;10.60;69.50;;;;;;5052741;28;20289;-72
2023/02/23 09:36:07;;;;;;;9.35;6.95;;;10.70;69.60;;;;;;5053395;28;20645;-71
2023/02/23 09:38:34;;;;;;;9.88;6.90;;;10.70;69.80;;;;;;5053372;28;20285;-71
2023/02/23 09:41:01;;;;;;;10.75;7.38;;;10.70;70.10;;;;;;5053416;28;20229;-72
2023/02/23 09:43:41;;;;;;;11.75;7.10;;;10.80;70.60;;;;;;5052961;28;20283;-72
2023/02/23 09:46:23;;;;;;;15.00;7.63;;;10.80;71.90;;;;;;5053210;28;20190;-71
2023/02/23 09:48:51;;;;;;;9.95;7.18;;;10.90;72.50;;;;;;5049808;28;20237;-70
2023/02/23 09:51:21;;;;;;;15.05;8.35;;;10.90;73.10;;;;;;5053144;28;20212;-71
2023/02/23 09:53:51;;;;;;;11.52;7.25;;;10.90;73.10;;;;;;5052679;28;20293;-72
2023/02/23 09:56:24;;;;;;;9.77;7.35;;;11.00;73.80;;;;;;5048894;28;20190;-71
2023/02/23 09:58:52;;;;;;;14.50;8.55;;;11.00;74.00;;;;;;5053124;28;20294;-71
2023/02/23 10:01:44;;;;;;;10.80;7.20;;;11.10;74.10;;;;;;5052238;28;20313;-71
2023/02/23 10:04:18;;;;;;;11.68;9.07;;;11.10;73.90;;;;;;5051988;28;20201;-72
2023/02/23 10:06:52;;;;;;;9.63;6.20;;;11.20;73.40;;;;;;5049538;28;20249;-71
2023/02/23 10:09:27;;;;;;;10.70;5.60;;;11.30;72.60;;;;;;5052786;28;20198;-71
2023/02/23 10:12:03;;;;;;;7.75;5.35;;;11.30;71.50;;;;;;5049240;28;20698;-72
2023/02/23 10:14:54;;;;;;;9.70;5.25;;;11.40;70.80;;;;;;5051499;28;20660;-70
2023/02/23 10:17:32;;;;;;;8.27;6.18;;;11.50;69.80;;;;;;5051398;28;20198;-71
2023/02/23 10:20:13;;;;;;;8.93;4.68;;;11.70;69.40;;;;;;5049192;28;20191;-71
2023/02/23 10:22:46;;;;;;;9.73;5.10;;;11.80;68.70;;;;;;5052219;28;20226;-73
2023/02/23 10:25:15;;;;;;;7.63;4.80;;;12.00;68.00;;;;;;5052719;28;20277;-71
2023/02/23 10:27:47;;;;;;;6.60;4.63;;;12.10;67.80;;;;;;5052367;28;20567;-71
2023/02/23 10:30:19;;;;;;;6.68;4.45;;;12.30;67.70;;;;;;5052043;28;20663;-71
2023/02/23 10:32:54;;;;;;;6.65;4.22;;;12.50;66.20;;;;;;5052271;28;20194;-72
2023/02/23 10:35:22;;;;;;;7.55;3.90;;;12.80;65.70;;;;;;5051928;28;20201;-72
2023/02/23 10:37:51;;;;;;;8.27;4.93;;;13.20;63.00;;;;;;5052032;28;20281;-72
2023/02/23 10:40:22;;;;;;;6.88;3.38;;;13.70;62.40;;;;;;5052225;28;20238;-71
2023/02/23 10:42:49;;;;;;;5.97;3.80;;;14.30;60.60;;;;;;5051544;28;20256;-73
2023/02/23 10:45:22;;;;;;;6.80;4.30;;;14.90;58.50;;;;;;5047930;28;20613;-71
2023/02/23 10:47:55;;;;;;;7.13;4.63;;;15.40;57.80;;;;;;5051834;28;20264;-71
2023/02/23 10:50:25;;;;;;;5.30;3.27;;;15.90;55.50;;;;;;5051516;28;20190;-72
2023/02/23 10:52:55;;;;;;;5.20;3.23;;;16.00;53.50;;;;;;5051744;28;20459;-72
2023/02/23 10:55:25;;;;;;;5.87;3.80;;;16.10;52.90;;;;;;5051800;28;20473;-71
2023/02/23 10:58:04;;;;;;;4.97;2.90;;;16.20;53.00;;;;;;5051366;28;20441;-72
2023/02/23 11:00:32;;;;;;;6.80;3.43;;;16.20;52.70;;;;;;5049469;28;20437;-71
2023/02/23 11:03:03;;;;;;;9.00;2.83;;;16.20;51.90;;;;;;5053476;28;20971;-73
2023/02/23 11:05:44;;;;;;;9.83;3.47;;;16.10;51.90;;;;;;5051818;28;20539;-72
2023/02/23 11:08:19;;;;;;;4.50;3.10;;;16.10;52.20;;;;;;5052566;28;20830;-72
2023/02/23 11:11:03;;;;;;;4.50;2.83;;;16.10;51.80;;;;;;5052737;28;20804;-72
2023/02/23 11:13:38;;;;;;;3.90;2.20;;;16.20;51.70;;;;;;5054440;28;20842;-72
2023/02/23 11:16:09;;;;;;;4.70;2.47;;;16.40;51.60;;;;;;5051509;28;20935;-72
2023/02/23 11:18:40;;;;;;;5.00;2.47;;;16.50;50.30;;;;;;5057066;28;20445;-72
2023/02/23 11:21:22;;;;;;;3.90;2.80;;;16.60;50.30;;;;;;5055110;28;20476;-73
2023/02/23 11:23:51;;;;;;;3.23;2.20;;;16.90;49.90;;;;;;5053696;28;20514;-72
2023/02/23 11:26:38;;;;;;;5.67;2.70;;;17.40;49.40;;;;;;5056491;28;20475;-71
2023/02/23 11:29:15;;;;;;;4.37;2.70;;;18.30;48.60;;;;;;5052086;28;20489;-72
2023/02/23 11:31:48;;;;;;;3.20;1.90;;;18.90;47.20;;;;;;5054389;28;20436;-72
2023/02/23 11:34:34;;;;;;;3.90;2.27;;;18.90;46.00;;;;;;5054724;28;20518;-71
2023/02/23 11:37:03;;;;;;;6.13;2.17;;;18.70;45.30;;;;;;5050686;28;20444;-72
2023/02/23 11:39:30;;;;;;;3.40;2.13;;;18.50;45.50;;;;;;5047209;28;20523;-71
2023/02/23 11:42:16;;;;;;;2.90;2.30;;;18.20;45.60;;;;;;5050991;28;20528;-71
2023/02/23 11:44:44;;;;;;;6.20;2.40;;;17.90;46.50;;;;;;5046286;28;20453;-71
2023/02/23 11:47:19;;;;;;;4.60;2.10;;;17.50;47.10;;;;;;5051127;28;20830;-71
2023/02/23 11:49:54;;;;;;;5.73;2.37;;;17.20;47.20;;;;;;5050697;28;20447;-72
2023/02/23 11:52:23;;;;;;;3.57;1.80;;;16.90;48.00;;;;;;5050596;28;20429;-71
2023/02/23 11:54:56;;;;;;;4.80;2.87;;;16.60;48.50;;;;;;5051081;28;20473;-71
2023/02/23 11:57:26;;;;;;;4.80;1.97;;;16.40;49.00;;;;;;5050942;28;20448;-71
2023/02/23 11:59:53;;;;;;;3.33;1.60;;;16.30;49.40;;;;;;5051114;28;20463;-71
2023/02/23 12:02:24;;;;;;;3.03;1.73;;;16.20;49.40;;;;;;5050984;28;20551;-72
2023/02/23 12:05:02;;;;;;;3.10;1.57;;;16.00;49.60;;;;;;5046656;28;20803;-71
2023/02/23 12:07:40;;;;;;;3.43;2.00;;;15.90;50.10;;;;;;5050795;28;20808;-72
2023/02/23 12:10:18;;;;;;;3.30;2.23;;;15.90;50.90;;;;;;5047003;28;20448;-72
2023/02/23 12:12:53;;;;;;;2.63;1.20;;;15.80;50.90;;;;;;5050992;28;20828;-71
2023/02/23 12:15:34;;;;;;;2.93;1.83;;;15.80;51.20;;;;;;5048583;28;20478;-71
2023/02/23 12:18:10;;;;;;;4.33;2.10;;;16.00;51.10;;;;;;5050529;28;20524;-72
2023/02/23 12:20:44;;;;;;;2.43;1.43;;;16.20;51.70;;;;;;5054094;28;20467;-71
2023/02/23 12:23:15;;;;;;;3.07;1.57;;;16.40;51.60;;;;;;5053453;28;20439;-73
2023/02/23 12:25:48;;;;;;;3.50;1.67;;;16.70;50.80;;;;;;5054327;28;20472;-71
2023/02/23 12:28:26;;;;;;;4.93;1.30;;;17.30;49.80;;;;;;5050120;28;20480;-70
2023/02/23 12:30:58;;;;;;;3.07;1.30;;;17.50;49.10;;;;;;5050058;28;20496;-71
2023/02/23 12:33:32;;;;;;;4.03;1.67;;;17.70;48.20;;;;;;5053665;28;20469;-76
2023/02/23 12:36:07;;;;;;;4.90;2.20;;;17.80;47.10;;;;;;5048422;28;20876;-71
2023/02/23 12:38:47;;;;;;;3.60;1.87;;;17.80;46.40;;;;;;5072374;28;20470;-72
2023/02/23 12:41:20;;;;;;;1.90;0.93;;;17.80;46.10;;;;;;5052823;28;20440;-75
2023/02/23 12:43:51;;;;;;;8.03;1.80;;;17.60;45.40;;;;;;5055451;28;20488;-71
2023/02/23 12:46:21;;;;;;;2.70;1.73;;;17.40;46.00;;;;;;5056119;28;20436;-71
2023/02/23 12:48:56;;;;;;;3.80;1.90;;;17.30;46.10;;;;;;5064174;28;20562;-71
2023/02/23 12:51:31;;;;;;;5.33;1.83;;;17.20;46.20;;;;;;5062455;28;20519;-71
2023/02/23 12:53:58;;;;;;;3.80;1.20;;;17.10;46.20;;;;;;5055757;28;20468;-71
2023/02/23 12:56:47;;;;;;;2.53;1.10;;;17.10;46.30;;;;;;5055009;28;20486;-71
2023/02/23 12:59:42;;;;;;;2.43;1.23;;;16.90;46.30;;;;;;5055031;28;20532;-71
2023/02/23 13:02:15;;;;;;;4.03;1.47;;;16.90;46.50;;;;;;5055360;28;20468;-71
2023/02/23 13:05:07;;;;;;;3.73;1.63;;;16.90;46.40;;;;;;5055537;28;20444;-72
2023/02/23 13:07:48;;;;;;;4.23;1.10;;;16.90;46.10;;;;;;5055313;28;20425;-72
2023/02/23 13:10:24;;;;;;;2.53;1.23;;;17.00;46.30;;;;;;5055450;28;20479;-71
2023/02/23 13:13:02;;;;;;;2.43;1.00;;;17.10;46.20;;;;;;5055496;28;20841;-72
2023/02/23 13:15:44;;;;;;;2.40;1.20;;;17.00;45.60;;;;;;5055193;28;20482;-75
2023/02/23 13:18:18;;;;;;;2.53;1.13;;;16.90;45.70;;;;;;5055319;28;20475;-71
2023/02/23 13:20:50;;;;;;;2.80;0.90;;;16.90;45.80;;;;;;5055236;28;20535;-70
2023/02/23 13:23:25;;;;;;;1.90;1.00;;;16.90;45.70;;;;;;5054954;28;20517;-71
2023/02/23 13:26:01;;;;;;;2.87;1.80;;;16.80;46.00;;;;;;5054969;28;20437;-71
2023/02/23 13:28:40;;;;;;;3.87;1.20;;;16.80;46.00;;;;;;5054717;28;20522;-71
2023/02/23 13:31:19;;;;;;;3.70;1.10;;;16.70;45.90;;;;;;5054330;28;20472;-71
2023/02/23 13:33:48;;;;;;;2.30;1.20;;;16.60;45.80;;;;;;5055225;28;20441;-71
2023/02/23 13:36:16;;;;;;;2.83;1.30;;;16.50;46.20;;;;;;5054908;28;20518;-71
2023/02/23 13:38:53;;;;;;;2.70;1.23;;;16.40;46.60;;;;;;5055000;28;20445;-71
2023/02/23 13:41:33;;;;;;;2.40;1.30;;;16.40;46.60;;;;;;5054821;28;20452;-71
2023/02/23 13:44:09;;;;;;;3.27;1.40;;;16.30;46.50;;;;;;5055136;28;20445;-71
2023/02/23 13:46:45;;;;;;;4.93;1.20;;;16.30;46.80;;;;;;5054836;28;20990;-70
2023/02/23 13:49:27;;;;;;;3.33;1.43;;;16.20;46.30;;;;;;5054453;28;20993;-71
2023/02/23 13:51:57;;;;;;;3.37;1.50;;;16.10;46.50;;;;;;5055060;28;20459;-71
2023/02/23 13:54:32;;;;;;;2.57;1.27;;;16.10;46.70;;;;;;5054648;28;20473;-71
2023/02/23 13:57:01;;;;;;;7.37;1.90;;;16.00;46.60;;;;;;5054794;28;20516;-72
2023/02/23 13:59:32;;;;;;;3.00;1.33;;;15.90;47.00;;;;;;5054667;28;20570;-71
2023/02/23 14:02:02;;;;;;;3.53;1.17;;;15.80;47.30;;;;;;5054420;28;20487;-72
2023/02/23 14:04:36;;;;;;;2.40;1.00;;;15.70;47.70;;;;;;5054719;28;20476;-71
2023/02/23 14:07:17;;;;;;;3.03;1.10;;;15.60;48.40;;;;;;5054455;28;21001;-71
2023/02/23 14:09:53;;;;;;;3.30;1.83;;;15.60;47.90;;;;;;5054387;28;20480;-71
2023/02/23 14:12:26;;;;;;;2.30;1.10;;;15.50;48.20;;;;;;5053971;28;20923;-71
2023/02/23 14:14:53;;;;;;;3.57;1.10;;;15.50;47.70;;;;;;5054524;28;20485;-70
2023/02/23 14:17:49;;;;;;;2.10;1.00;;;15.40;47.80;;;;;;5054401;28;20528;-70
2023/02/23 14:20:24;;;;;;;2.90;1.57;;;15.40;47.60;;;;;;5054098;28;20469;-71
2023/02/23 14:23:25;;;;;;;3.83;1.47;;;15.50;48.00;;;;;;5054132;28;20529;-71
2023/02/23 14:26:10;;;;;;;3.50;1.50;;;15.70;48.80;;;;;;5049087;28;20437;-72